createdAt,value
2023-03-01T00:01:39.231Z,75.02
2023-03-01T00:04:20.901Z,74.83
2023-03-01T00:07:09.153Z,74.67
2023-03-01T00:09:52.957Z,74.43
2023-03-01T00:12:35.064Z,74.29
2023-03-01T00:15:23.905Z,74.35
2023-03-01T00:18:12.932Z,73.83
2023-03-01T00:21:03.221Z,73.61
2023-03-01T00:23:51.953Z,72.70
2023-03-01T00:26:35.160Z,72.39
2023-03-01T00:29:24.277Z,72.40
2023-03-01T00:32:06.328Z,72.59
2023-03-01T00:35:03.013Z,72.20
2023-03-01T00:37:45.389Z,71.70
2023-03-01T00:40:34.957Z,71.92
2023-03-01T00:43:17.577Z,71.41
2023-03-01T00:46:10.996Z,70.75
2023-03-01T00:48:53.180Z,71.28
2023-03-01T00:51:42.944Z,70.89
2023-03-01T00:54:25.183Z,70.98
2023-03-01T00:57:13.962Z,71.02
2023-03-01T00:59:56.195Z,71.07
2023-03-01T01:02:46.040Z,70.84
2023-03-01T01:05:28.143Z,71.31
2023-03-01T01:08:16.902Z,70.95
2023-03-01T01:10:59.168Z,70.57
2023-03-01T01:13:48.948Z,71.15
2023-03-01T01:16:39.994Z,70.92
2023-03-01T01:19:29.179Z,71.16
2023-03-01T01:22:11.931Z,70.72
2023-03-01T01:25:00.282Z,71.42
2023-03-01T01:27:42.978Z,71.50
2023-03-01T01:30:31.254Z,71.52
2023-03-01T01:33:12.934Z,71.96
2023-03-01T01:36:02.252Z,72.17
2023-03-01T01:38:45.870Z,72.06
2023-03-01T01:41:37.142Z,71.72
2023-03-01T01:44:34.876Z,71.86
2023-03-01T01:47:24.443Z,71.41
2023-03-01T01:50:12.876Z,71.59
2023-03-01T01:53:17.747Z,71.52
2023-03-01T01:56:16.927Z,72.59
2023-03-01T01:59:00.028Z,73.45
2023-03-01T02:01:48.914Z,72.27
2023-03-01T02:04:33.390Z,71.66
2023-03-01T02:07:37.265Z,72.59
2023-03-01T02:10:26.203Z,72.24
2023-03-01T02:13:09.932Z,71.52
2023-03-01T02:15:59.255Z,71.69
2023-03-01T02:18:41.945Z,71.27
2023-03-01T02:21:39.820Z,70.37
2023-03-01T02:24:37.895Z,70.10
2023-03-01T02:27:31.193Z,69.36
2023-03-01T02:30:14.882Z,70.22
2023-03-01T02:33:06.173Z,69.58
2023-03-01T02:35:48.985Z,68.83
2023-03-01T02:38:39.167Z,66.27
2023-03-01T02:41:24.959Z,65.84
2023-03-01T02:44:15.262Z,63.37
2023-03-01T02:47:02.933Z,62.68
2023-03-01T02:49:51.143Z,61.84
2023-03-01T02:52:50.919Z,61.29
2023-03-01T02:55:45.735Z,60.89
2023-03-01T02:58:34.892Z,60.00
2023-03-01T03:01:17.907Z,58.06
2023-03-01T03:04:09.930Z,58.87
2023-03-01T03:06:55.242Z,58.81
2023-03-01T03:09:42.961Z,58.06
2023-03-01T03:12:25.198Z,58.31
2023-03-01T03:15:18.259Z,57.68
2023-03-01T03:18:01.254Z,57.35
2023-03-01T03:20:51.908Z,57.54
2023-03-01T03:23:34.215Z,56.69
2023-03-01T03:26:24.030Z,54.20
2023-03-01T03:29:06.342Z,54.22
2023-03-01T03:31:55.047Z,54.07
2023-03-01T03:34:37.176Z,52.29
2023-03-01T03:37:44.050Z,51.01
2023-03-01T03:40:26.203Z,51.52
2023-03-01T03:43:17.887Z,51.76
2023-03-01T03:46:00.292Z,51.13
2023-03-01T03:48:53.879Z,50.92
2023-03-01T03:51:36.129Z,51.33
2023-03-01T03:54:25.869Z,50.12
2023-03-01T03:57:20.715Z,49.97
2023-03-01T04:00:09.931Z,50.80
2023-03-01T04:02:52.293Z,50.40
2023-03-01T04:05:40.920Z,48.57
2023-03-01T04:08:23.326Z,47.37
2023-03-01T04:11:33.023Z,45.72
2023-03-01T04:14:15.189Z,46.81
2023-03-01T04:17:03.933Z,46.81
2023-03-01T04:19:46.177Z,47.53
2023-03-01T04:22:37.937Z,45.05
2023-03-01T04:25:20.159Z,46.75
2023-03-01T04:28:08.942Z,45.22
2023-03-01T04:30:51.224Z,46.85
2023-03-01T04:33:39.875Z,46.78
2023-03-01T04:36:24.646Z,45.74
2023-03-01T04:39:20.920Z,44.70
2023-03-01T04:42:03.269Z,45.91
2023-03-01T04:44:52.915Z,42.99
2023-03-01T04:47:35.187Z,45.71
2023-03-01T04:50:29.018Z,44.40
2023-03-01T04:53:11.202Z,43.20
2023-03-01T04:56:00.203Z,42.51
2023-03-01T04:58:42.134Z,42.49
2023-03-01T05:01:30.925Z,42.86
2023-03-01T05:04:15.447Z,43.75
2023-03-01T05:07:04.950Z,42.39
2023-03-01T05:09:47.288Z,42.89
2023-03-01T05:12:36.907Z,42.09
2023-03-01T05:15:19.345Z,43.57
2023-03-01T05:18:08.909Z,43.83
2023-03-01T05:20:51.155Z,42.40
2023-03-01T05:23:40.895Z,40.66
2023-03-01T05:26:30.613Z,41.25
2023-03-01T05:29:19.907Z,41.91
2023-03-01T05:32:03.202Z,42.46
2023-03-01T05:34:52.893Z,43.04
2023-03-01T05:37:35.146Z,43.61
2023-03-01T05:40:28.870Z,40.61
2023-03-01T05:43:11.188Z,42.91
2023-03-01T05:45:59.880Z,41.96
2023-03-01T05:48:42.186Z,41.18
2023-03-01T05:51:30.904Z,39.40
2023-03-01T05:54:13.167Z,40.33
2023-03-01T05:57:01.860Z,40.92
2023-03-01T05:59:50.955Z,41.10
2023-03-01T06:02:40.350Z,41.06
2023-03-01T06:05:23.954Z,40.42
2023-03-01T06:08:06.436Z,40.82
2023-03-01T06:10:56.018Z,40.07
2023-03-01T06:13:45.201Z,40.04
2023-03-01T06:16:26.926Z,37.97
2023-03-01T06:19:16.161Z,38.93
2023-03-01T06:21:57.870Z,38.15
2023-03-01T06:24:40.120Z,37.65
2023-03-01T06:27:28.898Z,38.08
2023-03-01T06:30:23.178Z,38.15
2023-03-01T06:33:08.910Z,38.02
2023-03-01T06:35:57.657Z,37.34
2023-03-01T06:38:39.926Z,36.46
2023-03-01T06:41:28.928Z,38.89
2023-03-01T06:44:11.143Z,39.81
2023-03-01T06:47:00.296Z,39.98
2023-03-01T06:49:42.365Z,40.28
2023-03-01T06:52:30.925Z,40.61
2023-03-01T06:55:20.908Z,40.92
2023-03-01T06:58:11.320Z,39.50
2023-03-01T07:00:52.932Z,39.82
2023-03-01T07:03:35.100Z,40.65
2023-03-01T07:06:23.883Z,40.39
2023-03-01T07:09:12.919Z,40.74
2023-03-01T07:11:55.260Z,40.02
2023-03-01T07:14:43.987Z,40.96
2023-03-01T07:17:26.132Z,40.71
2023-03-01T07:20:14.905Z,40.65
2023-03-01T07:22:57.249Z,40.90
2023-03-01T07:25:46.004Z,39.79
2023-03-01T07:28:28.360Z,40.74
2023-03-01T07:31:16.967Z,40.33
2023-03-01T07:33:59.232Z,40.59
2023-03-01T07:36:47.849Z,42.89
2023-03-01T07:39:30.190Z,41.07
2023-03-01T07:42:18.958Z,42.69
2023-03-01T07:45:01.246Z,42.64
2023-03-01T07:47:50.238Z,43.55
2023-03-01T07:50:32.187Z,43.58
2023-03-01T07:53:20.867Z,41.75
2023-03-01T07:56:11.163Z,44.36
2023-03-01T07:58:53.909Z,42.95
2023-03-01T08:01:42.955Z,43.62
2023-03-01T08:04:26.890Z,44.33
2023-03-01T08:07:15.885Z,43.21
2023-03-01T08:09:58.183Z,44.03
2023-03-01T08:12:46.852Z,44.21
2023-03-01T08:15:29.272Z,45.09
2023-03-01T08:18:17.906Z,44.58
2023-03-01T08:21:00.117Z,43.86
2023-03-01T08:23:49.917Z,45.03
2023-03-01T08:26:32.421Z,45.02
2023-03-01T08:29:21.872Z,46.14
2023-03-01T08:32:04.304Z,45.24
2023-03-01T08:34:55.951Z,46.12
2023-03-01T08:37:38.168Z,45.58
2023-03-01T08:40:26.887Z,46.81
2023-03-01T08:43:15.944Z,46.61
2023-03-01T08:45:58.229Z,46.83
2023-03-01T08:48:46.910Z,47.42
2023-03-01T08:51:38.631Z,47.42
2023-03-01T08:54:23.880Z,48.10
2023-03-01T08:57:12.171Z,47.64
2023-03-01T08:59:54.948Z,47.86
2023-03-01T09:02:44.282Z,47.75
2023-03-01T09:05:25.899Z,47.50
2023-03-01T09:08:14.264Z,46.60
2023-03-01T09:10:56.971Z,47.93
2023-03-01T09:13:46.225Z,46.52
2023-03-01T09:16:30.295Z,47.43
2023-03-01T09:19:20.299Z,47.44
2023-03-01T09:22:02.064Z,47.82
2023-03-01T09:24:50.168Z,48.09
2023-03-01T09:27:33.924Z,48.31
2023-03-01T09:30:16.607Z,48.21
2023-03-01T09:33:05.931Z,48.42
2023-03-01T09:35:54.243Z,48.27
2023-03-01T09:38:36.907Z,47.80
2023-03-01T09:41:34.220Z,47.41
2023-03-01T09:44:52.987Z,46.21
2023-03-01T09:47:39.039Z,45.80
2023-03-01T09:50:33.920Z,45.75
2023-03-01T09:53:29.122Z,45.33
2023-03-01T09:56:33.138Z,45.04
2023-03-01T09:59:30.159Z,44.34
2023-03-01T10:02:24.404Z,44.49
2023-03-01T10:05:37.588Z,42.88
2023-03-01T10:08:35.863Z,44.21
2023-03-01T10:11:28.512Z,43.33
2023-03-01T10:14:40.962Z,43.25
2023-03-01T10:17:41.360Z,43.51
2023-03-01T10:20:33.271Z,43.19
2023-03-01T10:23:22.396Z,43.93
2023-03-01T10:26:18.941Z,43.56
2023-03-01T10:29:12.227Z,42.76
2023-03-01T10:32:00.020Z,43.53
2023-03-01T10:34:48.199Z,45.15
2023-03-01T10:37:33.015Z,45.59
2023-03-01T10:40:21.171Z,44.94
2023-03-01T10:43:08.964Z,45.96
2023-03-01T10:45:58.272Z,45.60
2023-03-01T10:48:39.907Z,46.19
2023-03-01T10:51:28.468Z,45.51
2023-03-01T10:54:12.943Z,46.32
2023-03-01T10:57:11.704Z,46.91
2023-03-01T11:00:24.910Z,45.28
2023-03-01T11:03:07.329Z,46.33
2023-03-01T11:06:09.987Z,45.06
2023-03-01T11:08:55.986Z,46.34
2023-03-01T11:11:45.945Z,46.16
2023-03-01T11:14:32.278Z,45.65
2023-03-01T11:17:53.169Z,46.05
2023-03-01T11:20:46.420Z,46.83
2023-03-01T11:23:37.221Z,47.05
2023-03-01T11:26:22.279Z,47.38
2023-03-01T11:29:21.980Z,47.56
2023-03-01T11:32:10.319Z,48.16
2023-03-01T11:35:14.904Z,48.02
2023-03-01T11:38:07.173Z,47.93
2023-03-01T11:41:01.852Z,48.88
2023-03-01T11:44:09.942Z,48.87
2023-03-01T11:47:24.445Z,48.88
2023-03-01T11:50:21.936Z,49.42
2023-03-01T11:53:22.129Z,50.10
2023-03-01T11:56:14.741Z,50.63
2023-03-01T11:59:06.318Z,48.90
2023-03-01T12:02:14.968Z,50.07
2023-03-01T12:05:25.795Z,50.07
2023-03-01T12:08:34.519Z,49.95
2023-03-01T12:11:43.597Z,49.94
2023-03-01T12:14:50.977Z,49.94
2023-03-01T12:17:52.207Z,50.47
2023-03-01T12:20:37.988Z,51.60
2023-03-01T12:23:39.215Z,50.79
2023-03-01T12:26:37.597Z,51.86
2023-03-01T12:29:34.339Z,52.01
2023-03-01T12:32:35.406Z,52.33
2023-03-01T12:35:50.155Z,53.12
2023-03-01T12:39:06.912Z,52.95
2023-03-01T12:42:07.654Z,53.26
2023-03-01T12:45:20.893Z,53.49
2023-03-01T12:48:37.339Z,53.85
2023-03-01T12:51:24.964Z,53.89
2023-03-01T12:54:25.629Z,54.21
2023-03-01T12:57:55.030Z,54.09
2023-03-01T13:01:16.400Z,54.69
2023-03-01T13:04:22.013Z,54.65
2023-03-01T13:07:36.233Z,55.22
2023-03-01T13:10:23.913Z,54.34
2023-03-01T13:13:33.424Z,53.54
2023-03-01T13:16:41.110Z,54.71
2023-03-01T13:19:37.878Z,56.02
2023-03-01T13:22:53.033Z,56.32
2023-03-01T13:25:43.415Z,56.73
2023-03-01T13:28:46.042Z,56.75
2023-03-01T13:31:37.995Z,57.00
2023-03-01T13:34:56.926Z,57.62
2023-03-01T13:37:47.205Z,58.13
2023-03-01T13:40:31.208Z,58.70
2023-03-01T13:43:46.197Z,57.71
2023-03-01T13:46:32.106Z,58.22
2023-03-01T13:49:31.518Z,58.99
2023-03-01T13:52:37.917Z,59.43
2023-03-01T13:55:32.377Z,58.67
2023-03-01T13:58:33.915Z,59.86
2023-03-01T14:01:35.502Z,59.41
2023-03-01T14:04:36.945Z,59.58
2023-03-01T14:07:32.584Z,58.66
2023-03-01T14:10:17.068Z,59.64
2023-03-01T14:13:33.328Z,59.13
2023-03-01T14:16:20.970Z,59.62
2023-03-01T14:19:45.552Z,60.93
2023-03-01T14:22:50.929Z,60.03
2023-03-01T14:25:47.880Z,59.77
2023-03-01T14:28:46.020Z,59.57
2023-03-01T14:31:57.487Z,61.05
2023-03-01T14:34:41.999Z,61.59
2023-03-01T14:37:41.274Z,60.94
2023-03-01T14:40:34.375Z,61.28
2023-03-01T14:43:32.279Z,62.36
2023-03-01T14:46:14.912Z,60.66
2023-03-01T14:49:19.328Z,61.89
2023-03-01T14:52:08.879Z,61.66
2023-03-01T14:55:00.183Z,59.93
2023-03-01T14:57:53.013Z,59.87
2023-03-01T15:00:40.265Z,59.20
2023-03-01T15:03:48.960Z,61.88
2023-03-01T15:06:32.755Z,61.07
2023-03-01T15:09:25.958Z,61.12
2023-03-01T15:12:08.270Z,60.94
2023-03-01T15:15:04.456Z,60.86
2023-03-01T15:17:48.269Z,61.67
2023-03-01T15:20:38.954Z,60.89
2023-03-01T15:23:48.263Z,61.07
2023-03-01T15:26:45.923Z,61.49
2023-03-01T15:29:32.301Z,62.28
2023-03-01T15:32:40.108Z,62.53
2023-03-01T15:35:54.123Z,61.93
2023-03-01T15:39:03.035Z,62.96
2023-03-01T15:41:57.537Z,63.24
2023-03-01T15:44:53.922Z,63.17
2023-03-01T15:47:39.253Z,62.82
2023-03-01T15:50:38.023Z,61.75
2023-03-01T15:53:23.475Z,61.74
2023-03-01T15:56:14.898Z,61.62
2023-03-01T15:59:11.198Z,62.17
2023-03-01T16:01:55.004Z,62.08
2023-03-01T16:04:44.429Z,61.89
2023-03-01T16:07:27.001Z,62.06
2023-03-01T16:10:16.178Z,62.60
2023-03-01T16:13:00.913Z,62.81
2023-03-01T16:15:50.269Z,63.28
2023-03-01T16:18:31.942Z,63.31
2023-03-01T16:21:28.233Z,62.73
2023-03-01T16:24:09.872Z,63.20
2023-03-01T16:26:58.942Z,62.54
2023-03-01T16:29:41.380Z,63.05
2023-03-01T16:32:30.028Z,61.75
2023-03-01T16:35:13.153Z,62.29
2023-03-01T16:38:02.853Z,62.70
2023-03-01T16:40:45.136Z,62.61
2023-03-01T16:43:35.400Z,62.01
2023-03-01T16:46:36.136Z,61.52
2023-03-01T16:49:24.878Z,62.89
2023-03-01T16:52:07.520Z,62.64
2023-03-01T16:54:56.892Z,62.84
2023-03-01T16:57:46.108Z,62.37
2023-03-01T17:00:28.497Z,61.62
2023-03-01T17:03:17.970Z,62.15
2023-03-01T17:06:10.231Z,62.76
2023-03-01T17:08:53.318Z,62.92
2023-03-01T17:11:42.831Z,63.30
2023-03-01T17:14:25.969Z,64.09
2023-03-01T17:17:14.327Z,63.13
2023-03-01T17:19:57.242Z,63.41
2023-03-01T17:22:46.334Z,63.53
2023-03-01T17:25:29.045Z,62.77
2023-03-01T17:28:11.440Z,63.35
2023-03-01T17:31:00.993Z,64.08
2023-03-01T17:33:51.405Z,62.97
2023-03-01T17:36:33.969Z,62.66
2023-03-01T17:39:26.897Z,62.49
2023-03-01T17:42:10.071Z,62.73
2023-03-01T17:44:58.924Z,62.53
2023-03-01T17:47:41.863Z,63.49
2023-03-01T17:50:30.886Z,62.89
2023-03-01T17:53:13.170Z,63.37
2023-03-01T17:56:08.888Z,62.81
2023-03-01T17:58:58.164Z,62.34
2023-03-01T18:01:41.105Z,61.92
2023-03-01T18:04:23.485Z,61.18
2023-03-01T18:07:11.922Z,61.49
2023-03-01T18:10:01.228Z,61.90
2023-03-01T18:12:44.028Z,62.13
2023-03-01T18:15:32.219Z,62.30
2023-03-01T18:18:15.224Z,61.68
2023-03-01T18:21:08.512Z,61.52
2023-03-01T18:23:52.000Z,61.43
2023-03-01T18:26:41.448Z,62.05
2023-03-01T18:29:24.032Z,61.26
2023-03-01T18:32:14.521Z,62.13
2023-03-01T18:34:57.996Z,61.94
2023-03-01T18:37:47.340Z,63.22
2023-03-01T18:40:30.054Z,63.36
2023-03-01T18:43:19.578Z,63.50
2023-03-01T18:46:07.035Z,63.55
2023-03-01T18:48:56.257Z,63.33
2023-03-01T18:51:38.899Z,63.45
2023-03-01T18:54:28.403Z,63.99
2023-03-01T18:57:23.974Z,64.01
2023-03-01T19:00:13.228Z,64.18
2023-03-01T19:02:56.002Z,64.97
2023-03-01T19:05:49.360Z,64.32
2023-03-01T19:08:31.970Z,64.77
2023-03-01T19:11:23.756Z,64.30
2023-03-01T19:14:07.936Z,65.40
2023-03-01T19:16:56.219Z,65.74
2023-03-01T19:19:39.908Z,65.16
2023-03-01T19:22:28.196Z,65.13
2023-03-01T19:25:10.987Z,65.78
2023-03-01T19:28:00.350Z,65.68
2023-03-01T19:30:42.208Z,66.14
2023-03-01T19:33:31.357Z,65.73
2023-03-01T19:36:15.976Z,65.75
2023-03-01T19:39:04.136Z,65.80
2023-03-01T19:41:49.063Z,65.45
2023-03-01T19:44:39.799Z,65.58
2023-03-01T19:47:22.976Z,65.87
2023-03-01T19:50:12.212Z,65.99
2023-03-01T19:52:54.873Z,66.30
2023-03-01T19:55:45.200Z,65.72
2023-03-01T19:58:35.843Z,66.36
2023-03-01T20:01:36.371Z,66.29
2023-03-01T20:04:25.021Z,66.82
2023-03-01T20:07:07.214Z,66.85
2023-03-01T20:09:55.854Z,67.18
2023-03-01T20:12:44.856Z,67.09
2023-03-01T20:15:34.084Z,67.28
2023-03-01T20:18:17.956Z,66.46
2023-03-01T20:21:21.738Z,66.52
2023-03-01T20:24:05.933Z,66.83
2023-03-01T20:26:48.318Z,66.61
2023-03-01T20:29:36.841Z,66.72
2023-03-01T20:32:25.100Z,66.80
2023-03-01T20:35:07.915Z,67.04
2023-03-01T20:37:52.564Z,67.46
2023-03-01T20:40:41.816Z,66.52
2023-03-01T20:43:30.129Z,66.33
2023-03-01T20:46:18.902Z,65.16
2023-03-01T20:49:01.485Z,64.20
2023-03-01T20:51:51.925Z,64.00
2023-03-01T20:54:41.172Z,63.92
2023-03-01T20:57:35.852Z,63.46
2023-03-01T21:00:25.293Z,63.88
2023-03-01T21:03:07.814Z,63.92
2023-03-01T21:05:57.541Z,63.94
2023-03-01T21:08:41.900Z,64.16
2023-03-01T21:11:27.803Z,64.20
2023-03-01T21:14:16.899Z,63.91
2023-03-01T21:17:06.254Z,64.10
2023-03-01T21:19:51.793Z,63.64
2023-03-01T21:22:42.781Z,64.44
2023-03-01T21:25:25.346Z,64.19
2023-03-01T21:28:13.843Z,64.13
2023-03-01T21:30:56.236Z,63.58
2023-03-01T21:33:46.915Z,63.73
2023-03-01T21:36:31.365Z,64.44
2023-03-01T21:39:23.674Z,65.18
2023-03-01T21:42:11.292Z,66.97
2023-03-01T21:44:59.803Z,68.68
2023-03-01T21:47:42.175Z,68.62
2023-03-01T21:50:30.895Z,68.35
2023-03-01T21:53:13.078Z,68.23
2023-03-01T21:56:01.884Z,68.33
2023-03-01T21:58:50.725Z,67.94
2023-03-01T22:01:34.838Z,67.42
2023-03-01T22:04:26.108Z,67.14
2023-03-01T22:07:08.833Z,67.52
2023-03-01T22:09:57.080Z,68.07
2023-03-01T22:12:39.844Z,67.71
2023-03-01T22:15:29.087Z,67.50
2023-03-01T22:18:12.814Z,67.32
2023-03-01T22:21:01.099Z,66.65
2023-03-01T22:23:44.861Z,66.63
2023-03-01T22:26:39.124Z,66.49
2023-03-01T22:29:30.821Z,66.82
2023-03-01T22:32:19.990Z,66.48
2023-03-01T22:35:02.082Z,66.81
2023-03-01T22:37:50.845Z,66.30
2023-03-01T22:40:40.062Z,66.55
2023-03-01T22:43:28.795Z,66.76
2023-03-01T22:46:25.850Z,66.94
2023-03-01T22:49:14.896Z,67.13
2023-03-01T22:52:04.948Z,67.77
2023-03-01T22:54:53.143Z,68.23
2023-03-01T22:57:47.848Z,68.44
2023-03-01T23:00:36.336Z,68.28
2023-03-01T23:03:18.957Z,68.34
2023-03-01T23:06:01.189Z,69.56
2023-03-01T23:08:49.884Z,69.33
2023-03-01T23:11:38.148Z,69.36
2023-03-01T23:14:21.181Z,69.40
2023-03-01T23:17:12.050Z,69.95
2023-03-01T23:19:54.784Z,69.62
2023-03-01T23:22:44.202Z,69.58
2023-03-01T23:25:26.839Z,70.11
2023-03-01T23:28:10.059Z,69.56
2023-03-01T23:31:07.860Z,69.85
2023-03-01T23:33:50.664Z,69.03
2023-03-01T23:36:42.851Z,69.64
2023-03-01T23:39:25.133Z,68.93
2023-03-01T23:42:13.875Z,69.46
2023-03-01T23:44:56.019Z,69.31
2023-03-01T23:47:44.846Z,69.63
2023-03-01T23:50:27.003Z,70.07
2023-03-01T23:53:15.866Z,69.69
2023-03-01T23:56:04.769Z,69.39
2023-03-01T23:58:59.621Z,69.96
